createdAt,value
2023-05-12T00:03:34.243Z,101629.72
2023-05-12T00:09:23.095Z,101626.81
2023-05-12T00:15:10.347Z,101630.25
2023-05-12T00:20:57.682Z,101617.41
2023-05-12T00:26:45.902Z,101621.13
2023-05-12T00:32:33.104Z,101633.84
2023-05-12T00:38:23.249Z,101632.75
2023-05-12T00:44:10.253Z,101631.97
2023-05-12T00:49:57.848Z,101640.44
2023-05-12T00:55:59.825Z,101638.75
2023-05-12T01:01:53.580Z,101638.41
2023-05-12T01:07:40.708Z,101644.25
2023-05-12T01:13:33.057Z,101648.38
2023-05-12T01:19:49.345Z,101646.56
2023-05-12T01:25:40.312Z,101647.59
2023-05-12T01:31:27.867Z,101656.34
2023-05-12T01:37:18.311Z,101670.09
2023-05-12T01:43:09.183Z,101666.81
2023-05-12T01:48:57.485Z,101667.59
2023-05-12T01:54:59.772Z,101670.28
2023-05-12T02:00:51.079Z,101685.44
2023-05-12T02:06:38.701Z,101678.13
2023-05-12T02:12:39.124Z,101674.56
2023-05-12T02:18:26.271Z,101698.56
2023-05-12T02:24:15.000Z,101690.72
2023-05-12T02:30:02.643Z,101690.16
2023-05-12T02:35:52.868Z,101711.69
2023-05-12T02:41:55.606Z,101718.56
2023-05-12T02:47:46.148Z,101719.03
2023-05-12T02:53:42.569Z,101727.16
2023-05-12T02:59:30.783Z,101717.91
2023-05-12T03:05:17.779Z,101717.44
2023-05-12T03:11:11.708Z,101735.41
2023-05-12T03:16:59.155Z,101754.97
2023-05-12T03:22:46.343Z,101764.41
2023-05-12T03:28:33.460Z,101765.59
2023-05-12T03:34:23.577Z,101776.25
2023-05-12T03:40:11.514Z,101773.88
2023-05-12T03:45:58.744Z,101775.22
2023-05-12T03:51:46.652Z,101782.91
2023-05-12T03:57:42.665Z,101783.06
2023-05-12T04:03:30.055Z,101781.81
2023-05-12T04:09:17.028Z,101793.94
2023-05-12T04:15:04.314Z,101795.28
2023-05-12T04:20:51.185Z,101794.53
2023-05-12T04:26:44.337Z,101788.88
2023-05-12T04:32:31.996Z,101776.00
2023-05-12T04:38:23.436Z,101786.09
2023-05-12T04:44:22.403Z,101791.56
2023-05-12T04:50:11.355Z,101791.88
2023-05-12T04:56:00.823Z,101801.34
2023-05-12T05:01:51.638Z,101804.19
2023-05-12T05:07:41.329Z,101814.88
2023-05-12T05:13:28.407Z,101811.47
2023-05-12T05:19:35.882Z,101829.78
2023-05-12T05:25:40.746Z,101839.53
2023-05-12T05:31:29.399Z,101839.31
2023-05-12T05:37:18.900Z,101831.47
2023-05-12T05:43:06.666Z,101850.25
2023-05-12T05:48:53.592Z,101863.84
2023-05-12T06:00:48.256Z,101845.19
2023-05-12T06:06:50.024Z,101862.41
2023-05-12T06:12:37.674Z,101866.88
2023-05-12T06:18:29.627Z,101863.69
2023-05-12T06:24:17.587Z,101865.78
2023-05-12T06:30:05.437Z,101868.66
2023-05-12T06:42:09.069Z,101869.97
2023-05-12T06:48:13.500Z,101869.47
2023-05-12T06:54:03.104Z,101873.75
2023-05-12T06:59:55.149Z,101869.44
2023-05-12T07:05:50.581Z,101857.38
2023-05-12T07:12:00.845Z,101866.88
2023-05-12T07:18:53.333Z,101852.06
2023-05-12T07:24:41.928Z,101850.13
2023-05-12T07:30:31.517Z,101851.31
2023-05-12T07:36:21.956Z,101844.84
2023-05-12T07:42:15.690Z,101843.28
2023-05-12T07:48:03.801Z,101850.88
2023-05-12T07:53:50.748Z,101842.38
2023-05-12T07:59:37.948Z,101843.56
2023-05-12T08:05:28.900Z,101843.28
2023-05-12T08:11:50.734Z,101841.28
2023-05-12T08:17:44.860Z,101845.16
2023-05-12T08:23:45.526Z,101843.59
2023-05-12T08:29:42.485Z,101849.22
2023-05-12T08:35:30.510Z,101850.75
2023-05-12T08:41:51.715Z,101847.31
2023-05-12T08:47:42.310Z,101846.00
2023-05-12T08:53:53.534Z,101853.91
2023-05-12T09:00:00.212Z,101842.47
2023-05-12T09:05:51.152Z,101839.50
2023-05-12T09:11:50.892Z,101840.78
2023-05-12T09:17:46.673Z,101842.66
2023-05-12T09:23:45.135Z,101851.84
2023-05-12T09:29:37.401Z,101844.28
2023-05-12T09:35:32.251Z,101851.00
2023-05-12T09:41:25.789Z,101860.63
2023-05-12T09:47:18.475Z,101876.47
2023-05-12T09:53:08.662Z,101886.88
2023-05-12T09:58:57.712Z,101892.97
2023-05-12T10:05:02.281Z,101901.19
2023-05-12T10:11:02.365Z,101910.13
2023-05-12T10:16:51.217Z,101915.22
2023-05-12T10:23:18.934Z,101935.72
2023-05-12T10:30:19.185Z,101936.78
2023-05-12T10:59:41.164Z,101938.75
2023-05-12T11:06:26.034Z,101931.84
2023-05-12T11:13:23.048Z,101931.03
2023-05-12T11:19:16.119Z,101913.75
2023-05-12T11:25:10.763Z,101931.75
2023-05-12T11:31:03.948Z,101951.50
2023-05-12T11:36:53.503Z,101924.88
2023-05-12T11:42:42.857Z,101925.88
2023-05-12T11:48:36.143Z,101944.03
2023-05-12T11:54:23.780Z,101933.06
2023-05-12T12:00:12.235Z,101936.59
2023-05-12T12:07:04.770Z,101944.09
2023-05-12T12:12:57.768Z,101922.38
2023-05-12T12:18:57.646Z,101909.00
2023-05-12T12:24:59.224Z,101913.28
2023-05-12T12:30:47.696Z,101907.75
2023-05-12T12:36:39.069Z,101918.44
2023-05-12T12:42:38.614Z,101913.13
2023-05-12T12:48:36.802Z,101918.94
2023-05-12T12:54:36.705Z,101921.91
2023-05-12T13:00:33.589Z,101919.91
2023-05-12T13:06:31.625Z,101924.00
2023-05-12T13:12:21.494Z,101933.81
2023-05-12T13:18:37.823Z,101949.28
2023-05-12T13:24:30.076Z,101942.81
2023-05-12T13:30:30.651Z,101954.41
2023-05-12T13:36:42.960Z,101964.06
2023-05-12T13:42:32.661Z,101966.09
2023-05-12T13:48:28.539Z,101958.53
2023-05-12T13:54:16.163Z,101958.75
2023-05-12T14:00:08.197Z,101966.34
2023-05-12T14:06:27.077Z,101971.47
2023-05-12T14:12:41.576Z,101968.00
2023-05-12T14:26:17.888Z,101966.56
2023-05-12T14:32:15.110Z,101985.72
2023-05-12T14:38:17.887Z,101975.09
2023-05-12T14:44:16.076Z,101984.00
2023-05-12T14:50:05.544Z,101974.03
2023-05-12T14:55:54.588Z,101974.25
2023-05-12T15:01:52.734Z,101992.75
2023-05-12T15:07:41.702Z,101991.91
2023-05-12T15:13:30.943Z,101986.13
2023-05-12T15:19:21.722Z,101980.31
2023-05-12T15:25:15.668Z,101989.97
2023-05-12T15:31:05.562Z,101999.91
2023-05-12T15:36:52.680Z,101993.66
2023-05-12T15:58:20.328Z,102010.69
2023-05-12T16:04:07.820Z,102007.97
2023-05-12T16:09:57.817Z,102007.84
2023-05-12T16:15:49.035Z,102014.81
2023-05-12T16:21:38.700Z,101994.47
2023-05-12T16:27:34.198Z,101995.97
2023-05-12T16:33:21.154Z,101997.38
2023-05-12T16:39:09.532Z,102020.00
2023-05-12T16:45:01.374Z,102018.84
2023-05-12T16:51:03.384Z,102030.56
2023-05-12T16:56:53.330Z,102022.72
2023-05-12T17:02:40.424Z,102021.53
2023-05-12T17:08:41.831Z,102019.13
2023-05-12T17:14:33.915Z,102020.78
2023-05-12T17:20:22.316Z,102017.66
2023-05-12T17:26:15.915Z,102027.25
2023-05-12T17:32:05.924Z,102034.47
2023-05-12T17:44:33.871Z,102047.63
2023-05-12T17:50:31.907Z,102049.53
2023-05-12T17:56:21.171Z,102048.91
2023-05-12T18:02:09.964Z,102073.66
2023-05-12T18:07:56.926Z,102069.25
2023-05-12T18:13:44.362Z,102079.81
2023-05-12T18:19:31.589Z,102081.63
2023-05-12T18:25:20.949Z,102089.66
2023-05-12T18:31:15.816Z,102097.06
2023-05-12T18:37:08.571Z,102092.50
2023-05-12T18:42:56.348Z,102110.91
2023-05-12T18:48:54.288Z,102110.69
2023-05-12T18:54:42.110Z,102114.44
2023-05-12T19:00:33.330Z,102138.28
2023-05-12T19:06:24.365Z,102135.84
2023-05-12T19:12:11.999Z,102141.03
2023-05-12T19:17:59.564Z,102145.66
2023-05-12T19:23:51.298Z,102148.38
2023-05-12T19:29:38.411Z,102176.34
2023-05-12T19:35:26.362Z,102168.66
2023-05-12T19:41:15.982Z,102176.34
2023-05-12T19:47:14.171Z,102191.19
2023-05-12T19:53:02.915Z,102199.78
2023-05-12T19:58:50.619Z,102207.06
2023-05-12T20:12:30.587Z,102211.66
2023-05-12T20:18:24.247Z,102212.56
2023-05-12T20:24:16.441Z,102206.63
2023-05-12T20:30:03.987Z,102206.31
2023-05-12T20:43:34.420Z,102233.97
2023-05-12T20:50:01.485Z,102230.13
2023-05-12T20:55:57.022Z,102237.16
2023-05-12T21:01:48.063Z,102254.97
2023-05-12T21:07:36.282Z,102254.88
2023-05-12T21:13:23.279Z,102262.56
2023-05-12T21:19:12.191Z,102253.63
2023-05-12T21:25:04.365Z,102251.13
2023-05-12T21:30:53.691Z,102256.34
2023-05-12T21:36:42.060Z,102273.16
2023-05-12T21:42:35.896Z,102277.66
2023-05-12T21:48:22.757Z,102274.84
2023-05-12T21:54:09.501Z,102283.75
2023-05-12T22:00:07.791Z,102278.66
2023-05-12T22:06:02.467Z,102277.78
2023-05-12T22:11:54.256Z,102279.03
2023-05-12T22:17:43.251Z,102280.72
2023-05-12T22:23:31.463Z,102287.31
2023-05-12T22:29:21.481Z,102284.81
2023-05-12T22:35:11.391Z,102305.59
2023-05-12T22:40:59.780Z,102300.53
2023-05-12T22:46:47.239Z,102288.94
2023-05-12T22:52:35.264Z,102282.38
2023-05-12T22:58:36.337Z,102287.59
2023-05-12T23:04:25.555Z,102283.94
2023-05-12T23:10:17.542Z,102291.63
2023-05-12T23:16:05.731Z,102301.44
2023-05-12T23:21:52.750Z,102293.88
2023-05-12T23:27:41.829Z,102285.78
2023-05-12T23:33:39.279Z,102284.44
2023-05-12T23:39:31.738Z,102277.25
2023-05-12T23:45:19.590Z,102267.53
2023-05-12T23:51:08.274Z,102265.16
2023-05-12T23:56:57.075Z,102280.41
